sensor_id;sensor_type;location;lat;lon;timestamp;P1;durP1;ratioP1;P2;durP2;ratioP2
72132;SDS011;60008;50.826;6.896;2024-02-04T00:01:18;3.10;;;1.25;;
72132;SDS011;60008;50.826;6.896;2024-02-04T00:04:03;2.17;;;1.05;;
72132;SDS011;60008;50.826;6.896;2024-02-04T00:06:49;2.15;;;0.93;;
72132;SDS011;60008;50.826;6.896;2024-02-04T00:09:34;2.75;;;0.95;;
72132;SDS011;60008;50.826;6.896;2024-02-04T00:12:21;2.40;;;0.90;;
72132;SDS011;60008;50.826;6.896;2024-02-04T00:15:07;1.77;;;0.73;;
72132;SDS011;60008;50.826;6.896;2024-02-04T00:17:53;1.92;;;0.88;;
72132;SDS011;60008;50.826;6.896;2024-02-04T00:20:38;2.03;;;0.80;;
72132;SDS011;60008;50.826;6.896;2024-02-04T00:23:23;3.25;;;0.63;;
72132;SDS011;60008;50.826;6.896;2024-02-04T00:26:08;2.00;;;0.60;;
72132;SDS011;60008;50.826;6.896;2024-02-04T00:28:53;1.50;;;0.60;;
72132;SDS011;60008;50.826;6.896;2024-02-04T00:31:38;1.10;;;0.32;;
72132;SDS011;60008;50.826;6.896;2024-02-04T00:34:23;1.48;;;0.40;;
72132;SDS011;60008;50.826;6.896;2024-02-04T00:37:09;1.45;;;0.30;;
72132;SDS011;60008;50.826;6.896;2024-02-04T00:39:54;1.13;;;0.30;;
72132;SDS011;60008;50.826;6.896;2024-02-04T00:42:39;0.90;;;0.30;;
72132;SDS011;60008;50.826;6.896;2024-02-04T00:45:24;0.90;;;0.30;;
72132;SDS011;60008;50.826;6.896;2024-02-04T00:48:09;1.75;;;0.30;;
72132;SDS011;60008;50.826;6.896;2024-02-04T00:50:54;0.98;;;0.30;;
72132;SDS011;60008;50.826;6.896;2024-02-04T00:53:41;0.57;;;0.20;;
72132;SDS011;60008;50.826;6.896;2024-02-04T00:56:26;0.93;;;0.30;;
72132;SDS011;60008;50.826;6.896;2024-02-04T00:59:11;1.65;;;0.30;;
72132;SDS011;60008;50.826;6.896;2024-02-04T01:01:59;2.28;;;0.20;;
72132;SDS011;60008;50.826;6.896;2024-02-04T01:04:45;0.93;;;0.30;;
72132;SDS011;60008;50.826;6.896;2024-02-04T01:07:30;2.93;;;0.30;;
72132;SDS011;60008;50.826;6.896;2024-02-04T01:10:15;1.13;;;0.20;;
72132;SDS011;60008;50.826;6.896;2024-02-04T01:13:00;0.50;;;0.10;;
72132;SDS011;60008;50.826;6.896;2024-02-04T01:15:45;1.48;;;0.20;;
72132;SDS011;60008;50.826;6.896;2024-02-04T01:18:30;0.70;;;0.20;;
72132;SDS011;60008;50.826;6.896;2024-02-04T01:21:17;0.40;;;0.10;;
72132;SDS011;60008;50.826;6.896;2024-02-04T01:24:03;0.47;;;0.20;;
72132;SDS011;60008;50.826;6.896;2024-02-04T01:26:48;0.93;;;0.20;;
72132;SDS011;60008;50.826;6.896;2024-02-04T01:29:33;0.75;;;0.10;;
72132;SDS011;60008;50.826;6.896;2024-02-04T01:32:19;0.60;;;0.20;;
72132;SDS011;60008;50.826;6.896;2024-02-04T01:35:04;0.67;;;0.10;;
72132;SDS011;60008;50.826;6.896;2024-02-04T01:37:50;0.40;;;0.10;;
72132;SDS011;60008;50.826;6.896;2024-02-04T01:40:35;0.40;;;0.10;;
72132;SDS011;60008;50.826;6.896;2024-02-04T01:43:20;0.43;;;0.10;;
72132;SDS011;60008;50.826;6.896;2024-02-04T01:46:06;0.40;;;0.17;;
72132;SDS011;60008;50.826;6.896;2024-02-04T01:48:53;0.53;;;0.10;;
72132;SDS011;60008;50.826;6.896;2024-02-04T01:51:38;0.30;;;0.10;;
72132;SDS011;60008;50.826;6.896;2024-02-04T01:54:23;0.55;;;0.10;;
72132;SDS011;60008;50.826;6.896;2024-02-04T01:57:10;0.40;;;0.10;;
72132;SDS011;60008;50.826;6.896;2024-02-04T01:59:55;0.30;;;0.10;;
72132;SDS011;60008;50.826;6.896;2024-02-04T02:02:42;0.40;;;0.10;;
72132;SDS011;60008;50.826;6.896;2024-02-04T02:05:28;1.30;;;0.65;;
72132;SDS011;60008;50.826;6.896;2024-02-04T02:08:13;0.40;;;0.10;;
72132;SDS011;60008;50.826;6.896;2024-02-04T02:11:10;0.35;;;0.10;;
72132;SDS011;60008;50.826;6.896;2024-02-04T02:13:57;0.65;;;0.10;;
72132;SDS011;60008;50.826;6.896;2024-02-04T02:16:45;0.50;;;0.10;;
72132;SDS011;60008;50.826;6.896;2024-02-04T02:19:38;0.32;;;0.10;;
72132;SDS011;60008;50.826;6.896;2024-02-04T02:22:34;0.30;;;0.10;;
72132;SDS011;60008;50.826;6.896;2024-02-04T02:25:24;0.40;;;0.10;;
72132;SDS011;60008;50.826;6.896;2024-02-04T02:28:10;1.08;;;0.10;;
72132;SDS011;60008;50.826;6.896;2024-02-04T02:30:56;1.83;;;0.20;;
72132;SDS011;60008;50.826;6.896;2024-02-04T02:33:41;2.47;;;0.20;;
72132;SDS011;60008;50.826;6.896;2024-02-04T02:36:26;0.50;;;0.10;;
72132;SDS011;60008;50.826;6.896;2024-02-04T02:39:15;0.52;;;0.10;;
72132;SDS011;60008;50.826;6.896;2024-02-04T02:42:05;0.70;;;0.17;;
72132;SDS011;60008;50.826;6.896;2024-02-04T02:44:50;1.70;;;0.10;;
72132;SDS011;60008;50.826;6.896;2024-02-04T02:47:35;0.70;;;0.20;;
72132;SDS011;60008;50.826;6.896;2024-02-04T02:50:21;0.52;;;0.20;;
72132;SDS011;60008;50.826;6.896;2024-02-04T02:53:06;1.45;;;0.20;;
72132;SDS011;60008;50.826;6.896;2024-02-04T02:55:51;1.02;;;0.20;;
72132;SDS011;60008;50.826;6.896;2024-02-04T02:58:37;0.87;;;0.20;;
72132;SDS011;60008;50.826;6.896;2024-02-04T03:01:22;0.60;;;0.20;;
72132;SDS011;60008;50.826;6.896;2024-02-04T03:04:08;0.98;;;0.30;;
72132;SDS011;60008;50.826;6.896;2024-02-04T03:06:54;4.00;;;0.30;;
72132;SDS011;60008;50.826;6.896;2024-02-04T03:09:42;1.70;;;0.43;;
72132;SDS011;60008;50.826;6.896;2024-02-04T03:12:28;0.80;;;0.30;;
72132;SDS011;60008;50.826;6.896;2024-02-04T03:15:13;0.98;;;0.38;;
72132;SDS011;60008;50.826;6.896;2024-02-04T03:17:59;0.90;;;0.30;;
72132;SDS011;60008;50.826;6.896;2024-02-04T03:20:44;1.27;;;0.38;;
72132;SDS011;60008;50.826;6.896;2024-02-04T03:23:29;1.15;;;0.43;;
72132;SDS011;60008;50.826;6.896;2024-02-04T03:26:16;0.90;;;0.40;;
72132;SDS011;60008;50.826;6.896;2024-02-04T03:29:03;0.93;;;0.30;;
72132;SDS011;60008;50.826;6.896;2024-02-04T03:31:49;1.20;;;0.50;;
72132;SDS011;60008;50.826;6.896;2024-02-04T03:34:35;0.70;;;0.30;;
72132;SDS011;60008;50.826;6.896;2024-02-04T03:37:21;2.22;;;0.60;;
72132;SDS011;60008;50.826;6.896;2024-02-04T03:40:06;1.70;;;0.50;;
72132;SDS011;60008;50.826;6.896;2024-02-04T03:42:52;1.10;;;0.57;;
72132;SDS011;60008;50.826;6.896;2024-02-04T03:45:36;2.15;;;0.68;;
72132;SDS011;60008;50.826;6.896;2024-02-04T03:48:22;1.83;;;0.60;;
72132;SDS011;60008;50.826;6.896;2024-02-04T03:51:07;1.20;;;0.50;;
72132;SDS011;60008;50.826;6.896;2024-02-04T03:53:52;1.37;;;0.60;;
72132;SDS011;60008;50.826;6.896;2024-02-04T03:56:38;1.73;;;0.80;;
72132;SDS011;60008;50.826;6.896;2024-02-04T03:59:23;2.63;;;1.00;;
72132;SDS011;60008;50.826;6.896;2024-02-04T04:02:08;1.85;;;0.75;;
72132;SDS011;60008;50.826;6.896;2024-02-04T04:04:53;1.35;;;0.60;;
72132;SDS011;60008;50.826;6.896;2024-02-04T04:07:41;2.00;;;0.90;;
72132;SDS011;60008;50.826;6.896;2024-02-04T04:10:26;2.03;;;0.77;;
72132;SDS011;60008;50.826;6.896;2024-02-04T04:13:11;1.15;;;0.50;;
72132;SDS011;60008;50.826;6.896;2024-02-04T04:15:57;1.42;;;0.70;;
72132;SDS011;60008;50.826;6.896;2024-02-04T04:18:42;1.40;;;0.70;;
72132;SDS011;60008;50.826;6.896;2024-02-04T04:21:27;1.60;;;0.70;;
72132;SDS011;60008;50.826;6.896;2024-02-04T04:24:13;1.23;;;0.60;;
72132;SDS011;60008;50.826;6.896;2024-02-04T04:27:00;1.95;;;0.88;;
72132;SDS011;60008;50.826;6.896;2024-02-04T04:29:46;1.52;;;0.80;;
72132;SDS011;60008;50.826;6.896;2024-02-04T04:32:31;1.58;;;0.73;;
72132;SDS011;60008;50.826;6.896;2024-02-04T04:35:16;2.40;;;1.07;;
72132;SDS011;60008;50.826;6.896;2024-02-04T04:38:02;2.00;;;1.00;;
72132;SDS011;60008;50.826;6.896;2024-02-04T04:40:47;2.40;;;0.93;;
72132;SDS011;60008;50.826;6.896;2024-02-04T04:43:32;2.20;;;1.00;;
72132;SDS011;60008;50.826;6.896;2024-02-04T04:46:21;2.45;;;1.10;;
72132;SDS011;60008;50.826;6.896;2024-02-04T04:49:07;2.60;;;1.00;;
72132;SDS011;60008;50.826;6.896;2024-02-04T04:51:53;2.13;;;0.82;;
72132;SDS011;60008;50.826;6.896;2024-02-04T04:54:40;2.13;;;1.02;;
72132;SDS011;60008;50.826;6.896;2024-02-04T04:57:25;2.90;;;1.20;;
72132;SDS011;60008;50.826;6.896;2024-02-04T05:00:11;3.15;;;1.20;;
72132;SDS011;60008;50.826;6.896;2024-02-04T05:02:58;3.00;;;1.20;;
72132;SDS011;60008;50.826;6.896;2024-02-04T05:05:43;1.98;;;1.08;;
72132;SDS011;60008;50.826;6.896;2024-02-04T05:08:28;2.30;;;1.10;;
72132;SDS011;60008;50.826;6.896;2024-02-04T05:11:13;3.55;;;1.50;;
72132;SDS011;60008;50.826;6.896;2024-02-04T05:13:58;5.60;;;1.58;;
72132;SDS011;60008;50.826;6.896;2024-02-04T05:16:44;2.10;;;0.70;;
72132;SDS011;60008;50.826;6.896;2024-02-04T05:19:30;2.35;;;1.10;;
72132;SDS011;60008;50.826;6.896;2024-02-04T05:22:14;3.67;;;1.40;;
72132;SDS011;60008;50.826;6.896;2024-02-04T05:24:59;2.40;;;0.95;;
72132;SDS011;60008;50.826;6.896;2024-02-04T05:27:45;3.17;;;1.10;;
72132;SDS011;60008;50.826;6.896;2024-02-04T05:30:30;2.00;;;1.00;;
72132;SDS011;60008;50.826;6.896;2024-02-04T05:33:16;2.42;;;0.95;;
72132;SDS011;60008;50.826;6.896;2024-02-04T05:36:01;2.25;;;0.90;;
72132;SDS011;60008;50.826;6.896;2024-02-04T05:38:46;2.25;;;0.82;;
72132;SDS011;60008;50.826;6.896;2024-02-04T05:41:31;2.38;;;0.88;;
72132;SDS011;60008;50.826;6.896;2024-02-04T05:44:16;3.80;;;1.10;;
72132;SDS011;60008;50.826;6.896;2024-02-04T05:47:00;2.50;;;1.17;;
72132;SDS011;60008;50.826;6.896;2024-02-04T05:49:46;2.83;;;1.33;;
72132;SDS011;60008;50.826;6.896;2024-02-04T05:52:32;3.30;;;1.40;;
72132;SDS011;60008;50.826;6.896;2024-02-04T05:55:16;2.90;;;1.30;;
72132;SDS011;60008;50.826;6.896;2024-02-04T05:58:02;3.83;;;1.40;;
72132;SDS011;60008;50.826;6.896;2024-02-04T06:00:47;2.83;;;1.30;;
72132;SDS011;60008;50.826;6.896;2024-02-04T06:03:32;4.00;;;1.58;;
72132;SDS011;60008;50.826;6.896;2024-02-04T06:06:18;2.50;;;1.15;;
72132;SDS011;60008;50.826;6.896;2024-02-04T06:09:05;2.70;;;1.40;;
72132;SDS011;60008;50.826;6.896;2024-02-04T06:11:50;3.23;;;1.73;;
72132;SDS011;60008;50.826;6.896;2024-02-04T06:14:36;3.67;;;1.70;;
72132;SDS011;60008;50.826;6.896;2024-02-04T06:17:25;3.35;;;1.90;;
72132;SDS011;60008;50.826;6.896;2024-02-04T06:20:10;5.50;;;1.90;;
72132;SDS011;60008;50.826;6.896;2024-02-04T06:22:56;3.85;;;1.83;;
72132;SDS011;60008;50.826;6.896;2024-02-04T06:25:42;4.20;;;1.77;;
72132;SDS011;60008;50.826;6.896;2024-02-04T06:28:28;4.28;;;2.00;;
72132;SDS011;60008;50.826;6.896;2024-02-04T06:31:13;6.05;;;2.10;;
72132;SDS011;60008;50.826;6.896;2024-02-04T06:33:58;4.03;;;1.80;;
72132;SDS011;60008;50.826;6.896;2024-02-04T06:36:43;3.58;;;1.80;;
72132;SDS011;60008;50.826;6.896;2024-02-04T06:39:31;2.90;;;1.30;;
72132;SDS011;60008;50.826;6.896;2024-02-04T06:42:16;3.65;;;1.60;;
72132;SDS011;60008;50.826;6.896;2024-02-04T06:45:02;2.40;;;1.17;;
72132;SDS011;60008;50.826;6.896;2024-02-04T06:47:47;2.22;;;0.98;;
72132;SDS011;60008;50.826;6.896;2024-02-04T06:50:32;2.20;;;0.85;;
72132;SDS011;60008;50.826;6.896;2024-02-04T06:53:17;0.77;;;0.20;;
72132;SDS011;60008;50.826;6.896;2024-02-04T06:56:02;1.20;;;0.43;;
72132;SDS011;60008;50.826;6.896;2024-02-04T06:58:47;1.40;;;0.30;;
72132;SDS011;60008;50.826;6.896;2024-02-04T07:01:32;0.85;;;0.20;;
72132;SDS011;60008;50.826;6.896;2024-02-04T07:04:18;1.30;;;0.30;;
72132;SDS011;60008;50.826;6.896;2024-02-04T07:07:06;3.23;;;0.30;;
72132;SDS011;60008;50.826;6.896;2024-02-04T07:09:53;0.88;;;0.20;;
72132;SDS011;60008;50.826;6.896;2024-02-04T07:12:38;0.68;;;0.20;;
72132;SDS011;60008;50.826;6.896;2024-02-04T07:15:23;0.60;;;0.20;;
72132;SDS011;60008;50.826;6.896;2024-02-04T07:18:08;0.70;;;0.20;;
72132;SDS011;60008;50.826;6.896;2024-02-04T07:20:54;0.50;;;0.20;;
72132;SDS011;60008;50.826;6.896;2024-02-04T07:23:39;0.73;;;0.20;;
72132;SDS011;60008;50.826;6.896;2024-02-04T07:26:24;0.73;;;0.20;;
72132;SDS011;60008;50.826;6.896;2024-02-04T07:29:09;0.95;;;0.20;;
72132;SDS011;60008;50.826;6.896;2024-02-04T07:31:54;0.45;;;0.13;;
72132;SDS011;60008;50.826;6.896;2024-02-04T07:34:39;0.50;;;0.13;;
72132;SDS011;60008;50.826;6.896;2024-02-04T07:37:24;0.40;;;0.10;;
72132;SDS011;60008;50.826;6.896;2024-02-04T07:40:10;0.60;;;0.20;;
72132;SDS011;60008;50.826;6.896;2024-02-04T07:42:55;2.47;;;0.20;;
72132;SDS011;60008;50.826;6.896;2024-02-04T07:45:41;4.80;;;0.38;;
72132;SDS011;60008;50.826;6.896;2024-02-04T07:48:28;3.13;;;0.30;;
72132;SDS011;60008;50.826;6.896;2024-02-04T07:51:14;0.90;;;0.22;;
72132;SDS011;60008;50.826;6.896;2024-02-04T07:53:59;0.75;;;0.20;;
72132;SDS011;60008;50.826;6.896;2024-02-04T07:56:45;0.70;;;0.20;;
72132;SDS011;60008;50.826;6.896;2024-02-04T07:59:31;0.50;;;0.20;;
72132;SDS011;60008;50.826;6.896;2024-02-04T08:02:16;0.60;;;0.20;;
72132;SDS011;60008;50.826;6.896;2024-02-04T08:05:01;0.70;;;0.22;;
72132;SDS011;60008;50.826;6.896;2024-02-04T08:07:47;0.65;;;0.10;;
72132;SDS011;60008;50.826;6.896;2024-02-04T08:10:33;0.65;;;0.20;;
72132;SDS011;60008;50.826;6.896;2024-02-04T08:13:18;0.50;;;0.10;;
72132;SDS011;60008;50.826;6.896;2024-02-04T08:16:04;5.10;;;0.30;;
72132;SDS011;60008;50.826;6.896;2024-02-04T08:18:50;0.50;;;0.20;;
72132;SDS011;60008;50.826;6.896;2024-02-04T08:21:36;0.65;;;0.28;;
72132;SDS011;60008;50.826;6.896;2024-02-04T08:24:21;1.00;;;0.30;;
72132;SDS011;60008;50.826;6.896;2024-02-04T08:27:06;0.70;;;0.30;;
72132;SDS011;60008;50.826;6.896;2024-02-04T08:29:51;0.60;;;0.20;;
72132;SDS011;60008;50.826;6.896;2024-02-04T08:32:37;0.98;;;0.28;;
72132;SDS011;60008;50.826;6.896;2024-02-04T08:35:22;1.08;;;0.30;;
72132;SDS011;60008;50.826;6.896;2024-02-04T08:38:07;0.65;;;0.22;;
72132;SDS011;60008;50.826;6.896;2024-02-04T08:40:53;0.75;;;0.20;;
72132;SDS011;60008;50.826;6.896;2024-02-04T08:43:38;2.23;;;0.80;;
72132;SDS011;60008;50.826;6.896;2024-02-04T08:46:23;1.27;;;0.47;;
72132;SDS011;60008;50.826;6.896;2024-02-04T08:49:11;1.48;;;0.45;;
72132;SDS011;60008;50.826;6.896;2024-02-04T08:51:56;1.83;;;0.50;;
72132;SDS011;60008;50.826;6.896;2024-02-04T08:54:42;1.10;;;0.30;;
72132;SDS011;60008;50.826;6.896;2024-02-04T08:57:27;1.13;;;0.27;;
72132;SDS011;60008;50.826;6.896;2024-02-04T09:00:12;1.83;;;0.50;;
72132;SDS011;60008;50.826;6.896;2024-02-04T09:02:59;2.40;;;0.43;;
72132;SDS011;60008;50.826;6.896;2024-02-04T09:05:44;2.42;;;0.70;;
72132;SDS011;60008;50.826;6.896;2024-02-04T09:08:29;1.20;;;0.50;;
72132;SDS011;60008;50.826;6.896;2024-02-04T09:11:15;1.50;;;0.50;;
72132;SDS011;60008;50.826;6.896;2024-02-04T09:14:03;1.00;;;0.40;;
72132;SDS011;60008;50.826;6.896;2024-02-04T09:16:49;1.70;;;0.50;;
72132;SDS011;60008;50.826;6.896;2024-02-04T09:19:34;2.80;;;0.60;;
72132;SDS011;60008;50.826;6.896;2024-02-04T09:22:23;1.10;;;0.40;;
72132;SDS011;60008;50.826;6.896;2024-02-04T09:25:08;1.70;;;0.67;;
72132;SDS011;60008;50.826;6.896;2024-02-04T09:27:54;1.33;;;0.50;;
72132;SDS011;60008;50.826;6.896;2024-02-04T09:30:39;1.02;;;0.30;;
72132;SDS011;60008;50.826;6.896;2024-02-04T09:33:25;0.70;;;0.22;;
72132;SDS011;60008;50.826;6.896;2024-02-04T09:36:10;0.65;;;0.20;;
72132;SDS011;60008;50.826;6.896;2024-02-04T09:38:55;0.90;;;0.30;;
72132;SDS011;60008;50.826;6.896;2024-02-04T09:41:42;1.45;;;0.30;;
72132;SDS011;60008;50.826;6.896;2024-02-04T09:44:28;2.40;;;0.20;;
72132;SDS011;60008;50.826;6.896;2024-02-04T09:47:13;2.00;;;1.00;;
72132;SDS011;60008;50.826;6.896;2024-02-04T09:49:58;2.17;;;0.38;;
72132;SDS011;60008;50.826;6.896;2024-02-04T09:52:43;1.43;;;0.50;;
72132;SDS011;60008;50.826;6.896;2024-02-04T09:55:33;1.00;;;0.43;;
72132;SDS011;60008;50.826;6.896;2024-02-04T09:58:20;1.80;;;0.60;;
72132;SDS011;60008;50.826;6.896;2024-02-04T10:01:05;1.23;;;0.40;;
72132;SDS011;60008;50.826;6.896;2024-02-04T10:03:53;1.38;;;0.40;;
72132;SDS011;60008;50.826;6.896;2024-02-04T10:06:39;1.27;;;0.40;;
72132;SDS011;60008;50.826;6.896;2024-02-04T10:09:24;2.05;;;0.40;;
72132;SDS011;60008;50.826;6.896;2024-02-04T10:12:09;1.15;;;0.40;;
72132;SDS011;60008;50.826;6.896;2024-02-04T10:14:54;1.10;;;0.40;;
72132;SDS011;60008;50.826;6.896;2024-02-04T10:17:46;1.23;;;0.50;;
72132;SDS011;60008;50.826;6.896;2024-02-04T10:20:32;0.73;;;0.30;;
72132;SDS011;60008;50.826;6.896;2024-02-04T10:23:17;2.03;;;0.60;;
72132;SDS011;60008;50.826;6.896;2024-02-04T10:26:02;1.85;;;0.60;;
72132;SDS011;60008;50.826;6.896;2024-02-04T10:28:51;1.75;;;0.50;;
72132;SDS011;60008;50.826;6.896;2024-02-04T10:31:37;3.65;;;0.90;;
72132;SDS011;60008;50.826;6.896;2024-02-04T10:34:27;3.33;;;0.70;;
72132;SDS011;60008;50.826;6.896;2024-02-04T10:37:14;1.17;;;0.50;;
72132;SDS011;60008;50.826;6.896;2024-02-04T10:39:59;1.75;;;0.57;;
72132;SDS011;60008;50.826;6.896;2024-02-04T10:42:44;2.80;;;0.68;;
72132;SDS011;60008;50.826;6.896;2024-02-04T10:45:30;1.95;;;0.25;;
72132;SDS011;60008;50.826;6.896;2024-02-04T10:48:19;1.50;;;0.40;;
72132;SDS011;60008;50.826;6.896;2024-02-04T10:51:05;1.35;;;0.40;;
72132;SDS011;60008;50.826;6.896;2024-02-04T10:53:50;0.95;;;0.30;;
72132;SDS011;60008;50.826;6.896;2024-02-04T10:56:36;1.17;;;0.30;;
72132;SDS011;60008;50.826;6.896;2024-02-04T10:59:23;0.82;;;0.30;;
72132;SDS011;60008;50.826;6.896;2024-02-04T11:02:09;2.07;;;0.40;;
72132;SDS011;60008;50.826;6.896;2024-02-04T11:04:55;1.05;;;0.30;;
72132;SDS011;60008;50.826;6.896;2024-02-04T11:07:41;1.00;;;0.40;;
72132;SDS011;60008;50.826;6.896;2024-02-04T11:10:28;0.57;;;0.20;;
72132;SDS011;60008;50.826;6.896;2024-02-04T11:13:13;1.05;;;0.28;;
72132;SDS011;60008;50.826;6.896;2024-02-04T11:16:01;0.90;;;0.20;;
72132;SDS011;60008;50.826;6.896;2024-02-04T11:18:58;0.90;;;0.30;;
72132;SDS011;60008;50.826;6.896;2024-02-04T11:25:09;1.35;;;0.30;;
72132;SDS011;60008;50.826;6.896;2024-02-04T11:28:03;0.45;;;0.20;;
72132;SDS011;60008;50.826;6.896;2024-02-04T11:30:48;1.73;;;0.40;;
72132;SDS011;60008;50.826;6.896;2024-02-04T11:33:35;3.10;;;0.35;;
72132;SDS011;60008;50.826;6.896;2024-02-04T11:36:24;1.20;;;0.38;;
72132;SDS011;60008;50.826;6.896;2024-02-04T11:39:13;0.80;;;0.20;;
72132;SDS011;60008;50.826;6.896;2024-02-04T11:42:13;0.82;;;0.35;;
72132;SDS011;60008;50.826;6.896;2024-02-04T11:45:12;0.93;;;0.30;;
72132;SDS011;60008;50.826;6.896;2024-02-04T11:48:00;0.85;;;0.40;;
72132;SDS011;60008;50.826;6.896;2024-02-04T11:50:53;2.58;;;0.60;;
72132;SDS011;60008;50.826;6.896;2024-02-04T11:53:39;2.38;;;0.80;;
72132;SDS011;60008;50.826;6.896;2024-02-04T11:56:25;1.33;;;0.60;;
72132;SDS011;60008;50.826;6.896;2024-02-04T11:59:10;2.20;;;0.80;;
72132;SDS011;60008;50.826;6.896;2024-02-04T12:02:04;2.40;;;1.07;;
72132;SDS011;60008;50.826;6.896;2024-02-04T12:04:51;1.70;;;0.80;;
72132;SDS011;60008;50.826;6.896;2024-02-04T12:07:37;2.10;;;1.20;;
72132;SDS011;60008;50.826;6.896;2024-02-04T12:10:28;2.55;;;1.00;;
72132;SDS011;60008;50.826;6.896;2024-02-04T12:13:14;1.88;;;0.70;;
72132;SDS011;60008;50.826;6.896;2024-02-04T12:15:59;1.67;;;0.67;;
72132;SDS011;60008;50.826;6.896;2024-02-04T12:18:48;1.58;;;0.60;;
72132;SDS011;60008;50.826;6.896;2024-02-04T12:21:34;1.15;;;0.50;;
72132;SDS011;60008;50.826;6.896;2024-02-04T12:24:20;1.48;;;0.47;;
72132;SDS011;60008;50.826;6.896;2024-02-04T12:27:06;1.80;;;0.40;;
72132;SDS011;60008;50.826;6.896;2024-02-04T12:29:52;1.00;;;0.40;;
72132;SDS011;60008;50.826;6.896;2024-02-04T12:32:37;1.30;;;0.40;;
72132;SDS011;60008;50.826;6.896;2024-02-04T12:35:23;1.00;;;0.40;;
72132;SDS011;60008;50.826;6.896;2024-02-04T12:38:08;1.00;;;0.30;;
72132;SDS011;60008;50.826;6.896;2024-02-04T12:41:00;0.85;;;0.35;;
72132;SDS011;60008;50.826;6.896;2024-02-04T12:43:52;1.10;;;0.30;;
72132;SDS011;60008;50.826;6.896;2024-02-04T12:46:38;1.40;;;0.40;;
72132;SDS011;60008;50.826;6.896;2024-02-04T12:49:24;1.92;;;0.60;;
72132;SDS011;60008;50.826;6.896;2024-02-04T12:52:10;1.42;;;0.40;;
72132;SDS011;60008;50.826;6.896;2024-02-04T12:54:55;0.98;;;0.40;;
72132;SDS011;60008;50.826;6.896;2024-02-04T12:57:40;1.00;;;0.40;;
72132;SDS011;60008;50.826;6.896;2024-02-04T13:00:25;1.42;;;0.55;;
72132;SDS011;60008;50.826;6.896;2024-02-04T13:03:14;1.10;;;0.30;;
72132;SDS011;60008;50.826;6.896;2024-02-04T13:06:00;1.52;;;0.60;;
72132;SDS011;60008;50.826;6.896;2024-02-04T13:08:45;4.00;;;0.73;;
72132;SDS011;60008;50.826;6.896;2024-02-04T13:11:30;2.90;;;0.60;;
72132;SDS011;60008;50.826;6.896;2024-02-04T13:14:15;1.63;;;0.70;;
72132;SDS011;60008;50.826;6.896;2024-02-04T13:17:01;3.08;;;1.15;;
72132;SDS011;60008;50.826;6.896;2024-02-04T13:19:46;2.42;;;0.90;;
72132;SDS011;60008;50.826;6.896;2024-02-04T13:22:32;1.67;;;0.60;;
72132;SDS011;60008;50.826;6.896;2024-02-04T13:25:16;2.27;;;1.20;;
72132;SDS011;60008;50.826;6.896;2024-02-04T13:28:02;2.88;;;1.02;;
72132;SDS011;60008;50.826;6.896;2024-02-04T13:30:49;2.42;;;0.90;;
72132;SDS011;60008;50.826;6.896;2024-02-04T13:33:34;1.95;;;0.90;;
72132;SDS011;60008;50.826;6.896;2024-02-04T13:36:19;2.17;;;0.90;;
72132;SDS011;60008;50.826;6.896;2024-02-04T13:39:04;1.70;;;0.90;;
72132;SDS011;60008;50.826;6.896;2024-02-04T13:41:50;2.30;;;0.80;;
72132;SDS011;60008;50.826;6.896;2024-02-04T13:44:35;5.47;;;0.60;;
72132;SDS011;60008;50.826;6.896;2024-02-04T13:47:20;1.80;;;0.75;;
72132;SDS011;60008;50.826;6.896;2024-02-04T13:50:06;2.47;;;0.77;;
72132;SDS011;60008;50.826;6.896;2024-02-04T13:52:53;1.63;;;0.77;;
72132;SDS011;60008;50.826;6.896;2024-02-04T13:55:38;1.40;;;0.70;;
72132;SDS011;60008;50.826;6.896;2024-02-04T13:58:23;1.50;;;0.70;;
72132;SDS011;60008;50.826;6.896;2024-02-04T14:01:08;1.05;;;0.30;;
72132;SDS011;60008;50.826;6.896;2024-02-04T14:03:54;3.05;;;0.70;;
72132;SDS011;60008;50.826;6.896;2024-02-04T14:06:40;0.90;;;0.40;;
72132;SDS011;60008;50.826;6.896;2024-02-04T14:09:26;2.00;;;0.40;;
72132;SDS011;60008;50.826;6.896;2024-02-04T14:12:12;1.50;;;0.55;;
72132;SDS011;60008;50.826;6.896;2024-02-04T14:14:58;1.83;;;0.70;;
72132;SDS011;60008;50.826;6.896;2024-02-04T14:17:44;1.60;;;0.60;;
72132;SDS011;60008;50.826;6.896;2024-02-04T14:20:29;0.90;;;0.43;;
72132;SDS011;60008;50.826;6.896;2024-02-04T14:23:13;2.72;;;0.80;;
72132;SDS011;60008;50.826;6.896;2024-02-04T14:25:59;1.90;;;0.80;;
72132;SDS011;60008;50.826;6.896;2024-02-04T14:28:44;1.38;;;0.70;;
72132;SDS011;60008;50.826;6.896;2024-02-04T14:31:29;1.80;;;0.80;;
72132;SDS011;60008;50.826;6.896;2024-02-04T14:34:14;2.10;;;0.80;;
72132;SDS011;60008;50.826;6.896;2024-02-04T14:36:59;1.73;;;0.77;;
72132;SDS011;60008;50.826;6.896;2024-02-04T14:39:45;1.33;;;0.60;;
72132;SDS011;60008;50.826;6.896;2024-02-04T14:42:30;2.40;;;1.08;;
72132;SDS011;60008;50.826;6.896;2024-02-04T14:45:18;3.55;;;1.45;;
72132;SDS011;60008;50.826;6.896;2024-02-04T14:48:03;3.03;;;1.07;;
72132;SDS011;60008;50.826;6.896;2024-02-04T14:50:49;1.85;;;0.90;;
72132;SDS011;60008;50.826;6.896;2024-02-04T14:53:34;1.73;;;0.68;;
72132;SDS011;60008;50.826;6.896;2024-02-04T14:56:21;2.58;;;0.90;;
72132;SDS011;60008;50.826;6.896;2024-02-04T14:59:10;2.65;;;1.10;;
72132;SDS011;60008;50.826;6.896;2024-02-04T15:02:06;1.40;;;0.70;;
72132;SDS011;60008;50.826;6.896;2024-02-04T15:04:52;1.90;;;0.70;;
72132;SDS011;60008;50.826;6.896;2024-02-04T15:07:38;2.10;;;1.05;;
72132;SDS011;60008;50.826;6.896;2024-02-04T15:10:23;1.67;;;0.80;;
72132;SDS011;60008;50.826;6.896;2024-02-04T15:13:09;1.50;;;0.60;;
72132;SDS011;60008;50.826;6.896;2024-02-04T15:15:54;1.63;;;0.70;;
72132;SDS011;60008;50.826;6.896;2024-02-04T15:18:40;1.30;;;0.60;;
72132;SDS011;60008;50.826;6.896;2024-02-04T15:21:25;1.08;;;0.50;;
72132;SDS011;60008;50.826;6.896;2024-02-04T15:24:11;1.38;;;0.60;;
72132;SDS011;60008;50.826;6.896;2024-02-04T15:26:57;1.63;;;0.65;;
72132;SDS011;60008;50.826;6.896;2024-02-04T15:29:49;1.50;;;0.60;;
72132;SDS011;60008;50.826;6.896;2024-02-04T15:32:35;1.77;;;0.70;;
72132;SDS011;60008;50.826;6.896;2024-02-04T15:35:20;1.60;;;0.70;;
72132;SDS011;60008;50.826;6.896;2024-02-04T15:38:05;2.00;;;0.80;;
72132;SDS011;60008;50.826;6.896;2024-02-04T15:40:51;2.10;;;0.77;;
72132;SDS011;60008;50.826;6.896;2024-02-04T15:43:36;1.83;;;0.70;;
72132;SDS011;60008;50.826;6.896;2024-02-04T15:46:21;1.60;;;0.70;;
72132;SDS011;60008;50.826;6.896;2024-02-04T15:49:08;1.35;;;0.60;;
72132;SDS011;60008;50.826;6.896;2024-02-04T15:51:57;1.80;;;0.70;;
72132;SDS011;60008;50.826;6.896;2024-02-04T15:54:42;1.83;;;0.70;;
72132;SDS011;60008;50.826;6.896;2024-02-04T15:57:29;1.20;;;0.50;;
72132;SDS011;60008;50.826;6.896;2024-02-04T16:00:18;1.10;;;0.40;;
72132;SDS011;60008;50.826;6.896;2024-02-04T16:03:10;1.30;;;0.45;;
72132;SDS011;60008;50.826;6.896;2024-02-04T16:05:55;1.23;;;0.43;;
72132;SDS011;60008;50.826;6.896;2024-02-04T16:08:40;1.02;;;0.32;;
72132;SDS011;60008;50.826;6.896;2024-02-04T16:11:29;1.47;;;0.40;;
72132;SDS011;60008;50.826;6.896;2024-02-04T16:14:23;1.75;;;0.40;;
72132;SDS011;60008;50.826;6.896;2024-02-04T16:17:11;2.33;;;0.60;;
72132;SDS011;60008;50.826;6.896;2024-02-04T16:19:57;0.80;;;0.40;;
72132;SDS011;60008;50.826;6.896;2024-02-04T16:22:43;1.30;;;0.28;;
72132;SDS011;60008;50.826;6.896;2024-02-04T16:25:28;0.67;;;0.20;;
72132;SDS011;60008;50.826;6.896;2024-02-04T16:28:15;0.93;;;0.30;;
72132;SDS011;60008;50.826;6.896;2024-02-04T16:31:01;1.25;;;0.38;;
72132;SDS011;60008;50.826;6.896;2024-02-04T16:33:48;2.35;;;0.40;;
72132;SDS011;60008;50.826;6.896;2024-02-04T16:36:33;1.15;;;0.40;;
72132;SDS011;60008;50.826;6.896;2024-02-04T16:39:18;1.10;;;0.37;;
72132;SDS011;60008;50.826;6.896;2024-02-04T16:42:03;0.80;;;0.20;;
72132;SDS011;60008;50.826;6.896;2024-02-04T16:44:49;1.13;;;0.40;;